Orbital elements of FENGYUN 1C DEB
| Launched | 9 May 1999 |
| Flight ended | – |
| Launch site | Taiyuan Space Center, PRC |
| Owner | People's Republic of China |
| NORAD ID | 32191 |
| Date fetched |
Epoch osculation |
Inc. [°] |
Ecc. | RA asc node [hr] |
Arg Peri. [°] |
Mean anom [°] |
Mean motion [rev/day] |
Abs. mag |
| Date fetched |
Epoch osculation |
Inc. [°] |
Ecc. | RA asc node [hr] |
Arg Peri. [°] |
Mean anom [°] |
Mean motion [rev/day] |
Abs. mag |
| 2026 May 04 17:57 | 2026 Apr 30 10:16:27 | 98.6894 | 0.00938 | 12.0319 | 143.0761 | 217.6923 | 14.26074 | – |
| 2026 May 03 17:57 | 2026 Apr 30 10:16:27 | 98.6894 | 0.00938 | 12.0319 | 143.0761 | 217.6923 | 14.26074 | – |
| 2026 May 02 17:57 | 2026 Apr 30 10:16:27 | 98.6894 | 0.00938 | 12.0319 | 143.0761 | 217.6923 | 14.26074 | – |
| 2026 May 01 17:56 | 2026 Apr 30 10:16:27 | 98.6894 | 0.00938 | 12.0319 | 143.0761 | 217.6923 | 14.26074 | – |
| 2026 Apr 30 17:56 | 2026 Apr 30 10:16:27 | 98.6894 | 0.00938 | 12.0319 | 143.0761 | 217.6923 | 14.26074 | – |
| 2026 Apr 29 17:57 | 2026 Apr 21 09:02:43 | 98.6899 | 0.00935 | 11.4333 | 168.9652 | 217.6923 | 14.26074 | – |
| 2026 Apr 28 17:56 | 2026 Apr 21 09:02:43 | 98.6899 | 0.00935 | 11.4333 | 168.9652 | 217.6923 | 14.26074 | – |
| 2026 Apr 27 17:58 | 2026 Apr 21 09:02:43 | 98.6899 | 0.00935 | 11.4333 | 168.9652 | 217.6923 | 14.26074 | – |
| 2026 Apr 26 17:58 | 2026 Apr 21 09:02:43 | 98.6899 | 0.00935 | 11.4333 | 168.9652 | 217.6923 | 14.26074 | – |
| 2026 Apr 25 17:58 | 2026 Apr 21 09:02:43 | 98.6899 | 0.00935 | 11.4333 | 168.9652 | 217.6923 | 14.26074 | – |
| 2026 Apr 24 17:59 | 2026 Apr 21 09:02:43 | 98.6899 | 0.00935 | 11.4333 | 168.9652 | 217.6923 | 14.26074 | – |
| 2026 Apr 23 17:57 | 2026 Apr 17 10:44:32 | 98.6913 | 0.00934 | 11.1735 | 180.3902 | 217.6923 | 14.26074 | – |
| 2026 Apr 22 17:57 | 2026 Apr 17 10:44:32 | 98.6913 | 0.00934 | 11.1735 | 180.3902 | 217.6923 | 14.26074 | – |
| 2026 Apr 21 17:57 | 2026 Apr 17 10:44:32 | 98.6913 | 0.00934 | 11.1735 | 180.3902 | 217.6923 | 14.26074 | – |
| 2026 Apr 20 17:57 | 2026 Apr 17 10:44:32 | 98.6913 | 0.00934 | 11.1735 | 180.3902 | 217.6923 | 14.26074 | – |
| 2026 Apr 19 17:58 | 2026 Apr 17 10:44:32 | 98.6913 | 0.00934 | 11.1735 | 180.3902 | 217.6923 | 14.26074 | – |
| 2026 Apr 18 17:56 | 2026 Apr 11 21:42:21 | 98.6916 | 0.00926 | 10.8068 | 196.0540 | 217.6923 | 14.26074 | – |
| 2026 Apr 16 17:57 | 2026 Apr 11 21:42:21 | 98.6916 | 0.00926 | 10.8068 | 196.0540 | 217.6923 | 14.26074 | – |
| 2026 Apr 14 17:57 | 2026 Apr 11 21:42:21 | 98.6916 | 0.00926 | 10.8068 | 196.0540 | 217.6923 | 14.26074 | – |
| 2026 Apr 13 17:57 | 2026 Apr 11 21:42:21 | 98.6916 | 0.00926 | 10.8068 | 196.0540 | 217.6923 | 14.26074 | – |
| 2026 Apr 12 17:57 | 2026 Apr 02 10:21:36 | 98.6920 | 0.00919 | 10.1801 | 223.6251 | 217.6923 | 14.26074 | – |
| 2026 Apr 11 17:57 | 2026 Apr 02 10:21:36 | 98.6920 | 0.00919 | 10.1801 | 223.6251 | 217.6923 | 14.26074 | – |
| 2026 Apr 10 17:58 | 2026 Apr 02 10:21:36 | 98.6920 | 0.00919 | 10.1801 | 223.6251 | 217.6923 | 14.26074 | – |
| 2026 Apr 09 18:01 | 2026 Apr 02 10:21:36 | 98.6920 | 0.00919 | 10.1801 | 223.6251 | 217.6923 | 14.26074 | – |
| 2026 Apr 08 17:57 | 2026 Apr 02 10:21:36 | 98.6920 | 0.00919 | 10.1801 | 223.6251 | 217.6923 | 14.26074 | – |
| 2026 Apr 07 17:57 | 2026 Mar 30 21:43:58 | 98.6927 | 0.00921 | 10.0130 | 231.0706 | 217.6923 | 14.26074 | – |